Landen, Belgium
Current Conditions -  °F | °C
As of 9:33 PM on Monday 24 Nov 2014 (Local Time) from EBBE Reporting Station
Scattered Clouds Scattered Clouds  
Wind Chill: 43°   Ceiling: Unl
Heat Index: 43°   Visibility: 6mi
Dew Point: 37°   Wind: 1mph
Humidity: 81%   Direction: NA
Pressure: 30.33"   Gusts: NA
Location:  50.75°N, 5.08°E
Report Text: EBBE 242033Z VRB01KT 9999 SCT250 06/03 Q1027 BLU FCST CANCEL
Loading
Personal Weather Stations






























Interactive Weather Map New forecast layout! Learn more

10-Day Weather Forecast

Advertisements
Track Severe Weather on mobile